createdAt,value
2022-10-24T00:03:31.996Z,96808.38
2022-10-24T00:08:26.566Z,96799.38
2022-10-24T00:13:20.273Z,96805.47
2022-10-24T00:18:13.896Z,96804.78
2022-10-24T00:23:07.309Z,96823.50
2022-10-24T00:28:01.896Z,96816.41
2022-10-24T00:32:55.403Z,96813.78
2022-10-24T00:37:48.671Z,96825.56
2022-10-24T00:42:41.982Z,96828.63
2022-10-24T00:47:36.854Z,96845.66
2022-10-24T00:52:36.123Z,96864.34
2022-10-24T00:57:36.940Z,96875.47
2022-10-24T01:02:30.232Z,96874.59
2022-10-24T01:07:41.289Z,96861.19
2022-10-24T01:12:47.871Z,96853.56
2022-10-24T01:17:51.543Z,96844.16
2022-10-24T01:23:05.393Z,96859.00
2022-10-24T01:28:07.746Z,96870.50
2022-10-24T01:33:09.057Z,96858.81
2022-10-24T01:38:12.546Z,96848.28
2022-10-24T01:43:13.254Z,96890.28
2022-10-24T01:48:14.689Z,96892.09
2022-10-24T01:53:11.120Z,96882.09
2022-10-24T01:58:04.392Z,96881.00
2022-10-24T02:03:05.850Z,96879.91
2022-10-24T02:08:07.916Z,96880.28
2022-10-24T02:13:08.190Z,96865.06
2022-10-24T02:18:02.638Z,96858.94
2022-10-24T02:23:06.580Z,96850.19
2022-10-24T02:28:09.306Z,96852.84
2022-10-24T02:33:02.686Z,96873.78
2022-10-24T02:38:04.210Z,96859.38
2022-10-24T02:43:00.140Z,96865.50
2022-10-24T02:47:59.865Z,96852.47
2022-10-24T02:52:53.390Z,96863.13
2022-10-24T02:57:48.071Z,96863.28
2022-10-24T03:02:41.380Z,96879.78
2022-10-24T03:07:34.631Z,96849.97
2022-10-24T03:12:27.958Z,96847.75
2022-10-24T03:17:23.329Z,96857.47
2022-10-24T03:22:16.621Z,96871.31
2022-10-24T03:27:09.876Z,96879.53
2022-10-24T03:32:03.304Z,96869.53
2022-10-24T03:37:00.100Z,96882.41
2022-10-24T03:41:53.387Z,96891.28
2022-10-24T03:46:46.737Z,96883.13
2022-10-24T03:51:40.082Z,96894.31
2022-10-24T03:56:34.735Z,96896.31
2022-10-24T04:01:29.838Z,96895.31
2022-10-24T04:06:23.123Z,96877.84
2022-10-24T04:11:16.348Z,96897.09
2022-10-24T04:16:11.141Z,96898.63
2022-10-24T04:21:04.936Z,96890.63
2022-10-24T04:25:58.190Z,96891.03
2022-10-24T04:30:56.294Z,96873.56
2022-10-24T04:35:54.901Z,96887.03
2022-10-24T04:40:49.588Z,96884.09
2022-10-24T04:45:42.955Z,96897.72
2022-10-24T04:50:36.505Z,96893.69
2022-10-24T04:55:31.352Z,96907.84
2022-10-24T05:00:24.654Z,96889.38
2022-10-24T05:05:18.418Z,96849.84
2022-10-24T05:10:12.521Z,96841.94
2022-10-24T05:15:09.559Z,96824.06
2022-10-24T05:20:03.212Z,96835.16
2022-10-24T05:24:56.466Z,96818.53
2022-10-24T05:29:49.711Z,96820.19
2022-10-24T05:34:44.423Z,96826.56
2022-10-24T05:39:37.774Z,96831.56
2022-10-24T05:44:31.283Z,96831.69
2022-10-24T05:49:24.856Z,96845.84
2022-10-24T05:54:19.502Z,96825.16
2022-10-24T05:59:12.815Z,96822.94
2022-10-24T06:04:07.873Z,96836.97
2022-10-24T06:09:05.293Z,96832.09
2022-10-24T06:14:02.780Z,96846.66
2022-10-24T06:18:56.066Z,96867.88
2022-10-24T06:23:49.383Z,96864.00
2022-10-24T06:28:43.115Z,96872.47
2022-10-24T06:33:38.046Z,96873.00
2022-10-24T06:38:31.286Z,96877.19
2022-10-24T06:43:24.715Z,96876.19
2022-10-24T06:48:18.173Z,96884.78
2022-10-24T06:53:12.807Z,96856.22
2022-10-24T06:58:06.903Z,96850.94
2022-10-24T07:03:00.362Z,96871.50
2022-10-24T07:07:53.602Z,96869.72
2022-10-24T07:12:48.358Z,96887.75
2022-10-24T07:17:43.013Z,96879.13
2022-10-24T07:22:37.582Z,96887.03
2022-10-24T07:27:30.789Z,96888.16
2022-10-24T07:32:28.556Z,96880.78
2022-10-24T07:37:21.852Z,96898.00
2022-10-24T07:42:18.780Z,96894.28
2022-10-24T07:47:12.207Z,96882.03
2022-10-24T07:52:07.223Z,96889.28
2022-10-24T07:57:00.452Z,96887.06
2022-10-24T08:01:53.785Z,96891.47
2022-10-24T08:06:47.100Z,96877.59
2022-10-24T08:11:41.914Z,96878.44
2022-10-24T08:16:35.340Z,96883.69
2022-10-24T08:21:29.893Z,96892.63
2022-10-24T08:26:26.295Z,96891.91
2022-10-24T08:31:23.283Z,96909.97
2022-10-24T08:36:24.138Z,96941.19
2022-10-24T08:41:31.932Z,96938.56
2022-10-24T08:46:50.340Z,96954.13
2022-10-24T08:51:48.816Z,96999.09
2022-10-24T08:56:42.411Z,96989.25
2022-10-24T09:01:45.911Z,96987.44
2022-10-24T09:06:39.476Z,96992.25
2022-10-24T09:11:46.271Z,97005.34
2022-10-24T09:16:42.442Z,96996.03
2022-10-24T09:21:36.408Z,96967.72
2022-10-24T09:26:34.184Z,96973.53
2022-10-24T09:31:28.890Z,96965.78
2022-10-24T09:36:25.465Z,96970.06
2022-10-24T09:41:24.220Z,96966.19
2022-10-24T09:46:20.741Z,96975.09
2022-10-24T09:51:26.204Z,96993.13
2022-10-24T09:56:19.494Z,96987.84
2022-10-24T10:01:22.827Z,96997.16
2022-10-24T10:06:19.384Z,97016.06
2022-10-24T10:11:14.368Z,96989.94
2022-10-24T10:16:10.720Z,97017.00
2022-10-24T10:21:15.768Z,97040.63
2022-10-24T10:26:20.436Z,97052.59
2022-10-24T10:31:22.187Z,97049.97
2022-10-24T10:36:22.086Z,97062.56
2022-10-24T10:41:44.223Z,97077.59
2022-10-24T10:46:48.646Z,97088.94
2022-10-24T10:51:49.189Z,97097.22
2022-10-24T10:56:53.129Z,97121.34
2022-10-24T11:01:58.040Z,97130.91
2022-10-24T11:07:02.615Z,97109.69
2022-10-24T11:12:13.323Z,97083.44
2022-10-24T11:17:17.744Z,97059.75
2022-10-24T11:22:22.142Z,97039.75
2022-10-24T11:27:26.531Z,97025.34
2022-10-24T11:32:28.189Z,96988.84
2022-10-24T11:37:32.046Z,96978.84
2022-10-24T11:42:34.873Z,97002.66
2022-10-24T11:47:59.609Z,96997.00
2022-10-24T11:52:58.257Z,96998.09
2022-10-24T11:57:59.469Z,96999.47
2022-10-24T12:03:34.805Z,97018.34
2022-10-24T12:09:06.525Z,96995.31
2022-10-24T12:15:03.344Z,97015.56
2022-10-24T12:19:57.821Z,97004.84
2022-10-24T12:25:06.950Z,96999.44
2022-10-24T12:30:18.198Z,96999.47
2022-10-24T12:35:54.603Z,96983.63
2022-10-24T12:40:58.895Z,96943.09
2022-10-24T12:45:55.934Z,96945.50
2022-10-24T12:51:06.720Z,96990.88
2022-10-24T12:56:41.392Z,96996.13
2022-10-24T13:01:59.949Z,97017.97
2022-10-24T13:08:03.394Z,97007.31
2022-10-24T13:13:39.539Z,96992.53
2022-10-24T13:19:13.481Z,96982.25
2022-10-24T13:24:53.102Z,96994.34
2022-10-24T13:30:47.342Z,96977.94
2022-10-24T13:36:31.838Z,96952.00
2022-10-24T13:42:21.434Z,96966.28
2022-10-24T13:53:30.530Z,96983.69
2022-10-24T13:59:05.322Z,96976.31
2022-10-24T14:05:03.062Z,96981.47
2022-10-24T14:10:31.120Z,96980.34
2022-10-24T14:15:50.990Z,96984.50
2022-10-24T14:21:09.295Z,96986.75
2022-10-24T14:26:47.616Z,96987.00
2022-10-24T14:38:15.462Z,96994.75
2022-10-24T14:48:55.004Z,97024.72
2022-10-24T14:54:12.425Z,97015.03
2022-10-24T14:59:51.054Z,97020.41
2022-10-24T15:06:04.916Z,97015.03
2022-10-24T15:11:48.968Z,96997.41
2022-10-24T15:17:02.817Z,97003.91
2022-10-24T15:21:56.969Z,97001.84
2022-10-24T15:26:58.539Z,97008.31
2022-10-24T15:31:55.280Z,97029.66
2022-10-24T15:36:57.579Z,97021.22
2022-10-24T15:42:37.586Z,97021.06
2022-10-24T15:48:02.742Z,97011.34
2022-10-24T15:53:06.810Z,97019.94
2022-10-24T15:58:53.902Z,97003.00
2022-10-24T16:09:58.545Z,96996.06
2022-10-24T16:14:57.476Z,96990.78
2022-10-24T16:20:42.131Z,96983.03
2022-10-24T16:25:38.965Z,96982.19
2022-10-24T16:31:19.168Z,96989.13
2022-10-24T16:37:13.326Z,96981.63
2022-10-24T16:42:08.351Z,97000.91
2022-10-24T16:47:21.465Z,97001.88
2022-10-24T16:52:21.981Z,97007.41
2022-10-24T16:57:15.493Z,97010.91
2022-10-24T17:02:10.109Z,97005.75
2022-10-24T17:07:04.438Z,97009.19
2022-10-24T17:12:00.073Z,96995.59
2022-10-24T17:16:53.445Z,96988.66
2022-10-24T17:21:50.088Z,96983.25
2022-10-24T17:26:44.105Z,96966.03
2022-10-24T17:31:39.059Z,96983.19
2022-10-24T17:36:40.880Z,96993.88
2022-10-24T17:41:39.241Z,96986.41
2022-10-24T17:46:33.503Z,96976.28
2022-10-24T17:51:32.393Z,96994.97
2022-10-24T17:56:25.938Z,96999.88
2022-10-24T18:01:20.634Z,97009.78
2022-10-24T18:06:15.897Z,97014.63
2022-10-24T18:11:11.932Z,97007.09
2022-10-24T18:16:08.832Z,97015.94
2022-10-24T18:26:53.590Z,97014.16
2022-10-24T18:31:47.393Z,97012.03
2022-10-24T18:36:42.759Z,97024.16
2022-10-24T18:41:48.486Z,97031.28
2022-10-24T18:46:51.269Z,97030.19
2022-10-24T18:52:18.287Z,97059.19
2022-10-24T18:57:23.555Z,97063.59
2022-10-24T19:02:34.367Z,97069.97
2022-10-24T19:07:33.148Z,97092.41
2022-10-24T19:12:46.795Z,97083.47
2022-10-24T19:18:06.594Z,97088.75
2022-10-24T19:23:09.622Z,97094.72
2022-10-24T19:28:19.312Z,97091.72
2022-10-24T19:33:22.997Z,97086.09
2022-10-24T19:38:19.274Z,97085.63
2022-10-24T19:43:12.843Z,97097.25
2022-10-24T19:48:09.398Z,97091.00
2022-10-24T19:58:04.011Z,97082.63
2022-10-24T20:03:05.809Z,97113.81
2022-10-24T20:08:03.720Z,97092.56
2022-10-24T20:12:57.090Z,97106.31
2022-10-24T20:17:52.509Z,97116.13
2022-10-24T20:22:46.013Z,97128.63
2022-10-24T20:27:40.870Z,97106.94
2022-10-24T20:32:34.205Z,97102.25
2022-10-24T20:37:27.456Z,97116.22
2022-10-24T20:42:22.244Z,97112.66
2022-10-24T20:47:16.946Z,97138.81
2022-10-24T20:52:13.172Z,97157.91
2022-10-24T20:57:06.468Z,97163.34
2022-10-24T21:01:59.938Z,97158.88
2022-10-24T21:06:54.712Z,97147.75
2022-10-24T21:11:48.699Z,97177.28
2022-10-24T21:16:41.975Z,97181.94
2022-10-24T21:21:35.246Z,97178.31
2022-10-24T21:26:29.902Z,97208.22
2022-10-24T21:31:25.033Z,97206.75
2022-10-24T21:36:21.330Z,97206.59
2022-10-24T21:41:14.932Z,97197.31
2022-10-24T21:46:13.189Z,97208.13
2022-10-24T21:51:10.209Z,97211.56
2022-10-24T21:56:04.924Z,97228.41
2022-10-24T22:00:58.319Z,97220.22
2022-10-24T22:05:58.016Z,97222.28
2022-10-24T22:10:59.603Z,97226.75
2022-10-24T22:15:52.866Z,97219.59
2022-10-24T22:20:47.832Z,97217.78
2022-10-24T22:25:42.721Z,97203.97
2022-10-24T22:30:35.945Z,97210.75
2022-10-24T22:35:30.508Z,97207.22
2022-10-24T22:40:28.004Z,97220.28
2022-10-24T22:45:24.630Z,97240.69
2022-10-24T22:50:46.370Z,97222.50
2022-10-24T22:55:55.562Z,97224.84
2022-10-24T23:01:13.438Z,97234.84
2022-10-24T23:06:17.847Z,97222.66
2022-10-24T23:11:14.122Z,97203.47
2022-10-24T23:16:25.681Z,97244.63
2022-10-24T23:21:29.209Z,97235.97
2022-10-24T23:26:36.074Z,97251.53
2022-10-24T23:31:31.532Z,97285.34
2022-10-24T23:36:27.978Z,97291.13
2022-10-24T23:46:49.489Z,97241.25
2022-10-24T23:51:51.693Z,97231.38
2022-10-24T23:56:45.618Z,97252.16
